Time;durP1;ratioP1;P1;durP2;ratioP2;P2;SDS_P1;SDS_P2;PMS_P1;PMS_P2;Temp;Humidity;BMP_temperature;BMP_pressure;BME280_temperature;BME280_humidity;BME280_pressure;Samples;Min_cycle;Max_cycle;Signal;HPM_P1;HPM_P2
2023/04/04 00:02:44;;;;;;;8.43;2.05;;;2.80;99.90;;;;;;5010183;28;20050;-82
2023/04/04 00:05:30;;;;;;;8.65;1.92;;;2.70;99.90;;;;;;4995793;28;20119;-81
2023/04/04 00:08:16;;;;;;;8.95;2.45;;;2.70;99.90;;;;;;4992791;28;20050;-80
2023/04/04 00:11:05;;;;;;;5.32;2.10;;;2.70;99.90;;;;;;4996092;28;20112;-79
2023/04/04 00:13:51;;;;;;;14.40;2.20;;;2.60;99.90;;;;;;4996567;28;20418;-82
2023/04/04 00:16:37;;;;;;;5.45;1.85;;;2.50;99.90;;;;;;4980298;28;20065;-81
2023/04/04 00:19:24;;;;;;;4.90;1.83;;;2.50;99.90;;;;;;5010559;28;20065;-83
2023/04/04 00:22:12;;;;;;;5.95;1.95;;;2.50;99.90;;;;;;5009661;28;20076;-78
2023/04/04 00:24:58;;;;;;;8.48;2.30;;;2.50;99.90;;;;;;4995649;28;20116;-80
2023/04/04 00:27:44;;;;;;;7.90;1.98;;;2.50;99.90;;;;;;5010111;28;20053;-80
2023/04/04 00:30:31;;;;;;;7.80;1.90;;;2.40;99.90;;;;;;5010771;28;20054;-78
2023/04/04 00:33:17;;;;;;;7.78;2.95;;;2.40;99.90;;;;;;4979672;28;20497;-80
2023/04/04 00:36:03;;;;;;;5.85;2.10;;;2.30;99.90;;;;;;5011082;28;20061;-81
2023/04/04 00:38:49;;;;;;;12.60;2.78;;;2.30;99.90;;;;;;5010161;28;20429;-80
2023/04/04 00:41:36;;;;;;;4.68;1.60;;;2.20;99.90;;;;;;5012538;28;20557;-80
2023/04/04 00:44:22;;;;;;;8.32;1.70;;;2.20;99.90;;;;;;4994353;28;20063;-80
2023/04/04 00:47:08;;;;;;;7.25;1.77;;;2.10;99.90;;;;;;4998035;28;20046;-78
2023/04/04 00:49:54;;;;;;;9.20;2.72;;;2.10;99.90;;;;;;5009424;28;20563;-78
2023/04/04 00:52:41;;;;;;;8.32;2.08;;;2.00;99.90;;;;;;5010275;28;20058;-78
2023/04/04 00:55:27;;;;;;;8.45;2.30;;;2.00;99.90;;;;;;5010449;28;20453;-78
2023/04/04 00:58:13;;;;;;;5.88;1.98;;;2.00;99.90;;;;;;4995255;28;20057;-78
2023/04/04 01:01:01;;;;;;;6.68;3.72;;;1.90;99.90;;;;;;4992242;28;20394;-79
2023/04/04 01:03:47;;;;;;;5.35;2.15;;;1.90;99.90;;;;;;5010675;28;20141;-78
2023/04/04 01:06:33;;;;;;;5.22;2.15;;;1.80;99.90;;;;;;5011197;28;20046;-79
2023/04/04 01:09:20;;;;;;;7.57;2.72;;;1.80;99.90;;;;;;5008779;28;20113;-78
2023/04/04 01:12:06;;;;;;;6.38;2.33;;;1.80;99.90;;;;;;4992264;28;20053;-78
2023/04/04 01:14:52;;;;;;;7.68;2.00;;;1.90;99.90;;;;;;5010643;28;20096;-78
2023/04/04 01:17:40;;;;;;;6.22;2.50;;;1.90;99.90;;;;;;5013920;28;20050;-78
2023/04/04 01:20:29;;;;;;;8.65;3.10;;;1.90;99.90;;;;;;4996199;28;20425;-79
2023/04/04 01:23:16;;;;;;;10.05;3.03;;;2.00;99.90;;;;;;5013536;28;20046;-79
2023/04/04 01:26:04;;;;;;;7.88;2.63;;;2.00;99.90;;;;;;5013751;28;20053;-78
2023/04/04 01:28:50;;;;;;;10.50;2.55;;;2.00;99.90;;;;;;4995832;28;20046;-79
2023/04/04 01:31:42;;;;;;;8.05;2.60;;;2.00;99.90;;;;;;4996273;28;20080;-80
2023/04/04 01:34:46;;;;;;;7.28;3.40;;;2.00;99.90;;;;;;5013159;28;20056;-79
2023/04/04 01:38:02;;;;;;;9.07;3.80;;;2.10;99.90;;;;;;5013432;28;20521;-78
2023/04/04 01:44:55;;;;;;;7.60;2.95;;;2.10;99.90;;;;;;5013643;28;20217;-80
2023/04/04 01:47:42;;;;;;;7.28;2.95;;;2.10;99.90;;;;;;5013401;28;20056;-79
2023/04/04 01:50:28;;;;;;;10.65;2.97;;;2.10;99.90;;;;;;4995847;28;20057;-78
2023/04/04 01:53:14;;;;;;;14.25;3.63;;;2.10;99.90;;;;;;5013174;28;20084;-77
2023/04/04 01:56:01;;;;;;;9.73;3.60;;;2.10;99.90;;;;;;5012608;28;20567;-78
2023/04/04 01:58:47;;;;;;;9.95;3.58;;;2.20;99.90;;;;;;5012993;28;20162;-78
2023/04/04 02:01:34;;;;;;;8.07;3.90;;;2.20;99.90;;;;;;4995722;28;20080;-78
2023/04/04 02:04:20;;;;;;;13.45;3.78;;;2.20;99.90;;;;;;5018318;28;20048;-79
2023/04/04 02:07:07;;;;;;;9.82;3.63;;;2.20;99.90;;;;;;5013644;28;20045;-78
2023/04/04 02:09:53;;;;;;;8.60;3.40;;;2.20;99.90;;;;;;5013121;28;20104;-79
2023/04/04 02:12:39;;;;;;;8.25;4.18;;;2.20;99.90;;;;;;4995048;28;20060;-78
2023/04/04 02:15:25;;;;;;;12.63;4.15;;;2.20;99.90;;;;;;5011844;28;20089;-79
2023/04/04 02:18:11;;;;;;;9.35;3.88;;;2.10;99.90;;;;;;5012830;28;20053;-79
2023/04/04 02:20:58;;;;;;;12.77;5.07;;;2.10;99.90;;;;;;5012477;28;20042;-80
2023/04/04 02:23:44;;;;;;;7.43;3.08;;;2.10;99.90;;;;;;5016307;28;20054;-79
2023/04/04 02:26:30;;;;;;;8.57;3.35;;;2.00;99.90;;;;;;4999971;28;20042;-80
2023/04/04 02:29:16;;;;;;;9.77;4.40;;;2.00;99.90;;;;;;5012742;28;20053;-80
2023/04/04 02:32:02;;;;;;;10.27;4.03;;;2.00;99.90;;;;;;5011748;28;20046;-80
2023/04/04 02:34:48;;;;;;;8.25;3.47;;;1.90;99.90;;;;;;5012064;28;20147;-78
2023/04/04 02:37:35;;;;;;;12.05;3.83;;;1.90;99.90;;;;;;5010884;28;20084;-80
2023/04/04 02:40:21;;;;;;;16.83;4.63;;;1.90;99.90;;;;;;4990580;28;20505;-80
2023/04/04 02:43:07;;;;;;;12.02;3.78;;;1.80;99.90;;;;;;4992391;28;20046;-79
2023/04/04 02:45:53;;;;;;;8.65;4.03;;;1.80;99.90;;;;;;4981192;28;20132;-78
2023/04/04 02:48:39;;;;;;;11.10;3.67;;;1.80;99.90;;;;;;4991599;28;20188;-80
2023/04/04 02:51:26;;;;;;;6.78;3.58;;;1.70;99.90;;;;;;4991297;28;20092;-80
2023/04/04 02:54:12;;;;;;;9.70;3.97;;;1.70;99.90;;;;;;4992311;28;20112;-79
2023/04/04 02:56:58;;;;;;;10.20;4.10;;;1.70;99.90;;;;;;4978382;28;20046;-78
2023/04/04 02:59:44;;;;;;;8.57;4.07;;;1.60;99.90;;;;;;4992023;28;20141;-79
2023/04/04 03:02:30;;;;;;;9.02;4.05;;;1.60;99.90;;;;;;4993465;28;20064;-79
2023/04/04 03:05:16;;;;;;;8.02;4.50;;;1.50;99.90;;;;;;4998928;28;20054;-79
2023/04/04 03:08:03;;;;;;;13.77;5.47;;;1.50;99.90;;;;;;4992437;28;20050;-79
2023/04/04 03:10:49;;;;;;;11.73;4.53;;;1.50;99.90;;;;;;4992266;28;20058;-81
2023/04/04 03:13:35;;;;;;;11.10;3.78;;;1.50;99.90;;;;;;4991789;28;20104;-79
2023/04/04 03:16:22;;;;;;;8.77;4.47;;;1.40;99.90;;;;;;4992067;28;20402;-79
2023/04/04 03:19:08;;;;;;;8.43;3.83;;;1.40;99.90;;;;;;4990183;28;20043;-80
2023/04/04 03:21:54;;;;;;;11.48;4.35;;;1.30;99.90;;;;;;4998165;28;20050;-77
2023/04/04 03:24:40;;;;;;;15.80;5.20;;;1.30;99.90;;;;;;4992908;28;20051;-79
2023/04/04 03:27:26;;;;;;;10.40;4.40;;;1.30;99.90;;;;;;4974808;28;20046;-79
2023/04/04 03:30:12;;;;;;;14.15;4.80;;;1.20;99.90;;;;;;4991982;28;20572;-80
2023/04/04 03:33:02;;;;;;;10.23;4.53;;;1.20;99.90;;;;;;4989528;28;20046;-80
2023/04/04 03:35:48;;;;;;;9.55;3.83;;;1.10;99.90;;;;;;4991456;28;20606;-80
2023/04/04 03:38:35;;;;;;;12.00;4.28;;;1.10;99.90;;;;;;4990403;28;20043;-77
2023/04/04 03:41:21;;;;;;;11.55;4.43;;;1.10;99.90;;;;;;5012496;28;20072;-80
2023/04/04 03:44:07;;;;;;;11.05;4.90;;;1.10;99.90;;;;;;5011417;28;20053;-78
2023/04/04 03:46:53;;;;;;;7.80;3.85;;;1.10;99.90;;;;;;5010406;28;20441;-80
2023/04/04 03:49:40;;;;;;;8.05;3.88;;;1.00;99.90;;;;;;5011160;28;20046;-79
2023/04/04 03:52:27;;;;;;;14.02;5.10;;;1.00;99.90;;;;;;4993639;28;20400;-79
2023/04/04 03:55:13;;;;;;;12.02;4.30;;;1.00;99.90;;;;;;4995935;28;20046;-78
2023/04/04 03:57:59;;;;;;;13.32;4.95;;;1.00;99.90;;;;;;5014948;28;20048;-80
2023/04/04 04:00:45;;;;;;;12.48;4.13;;;1.00;99.90;;;;;;5011024;28;20046;-79
2023/04/04 04:03:32;;;;;;;9.82;4.30;;;1.00;99.90;;;;;;5010844;28;20065;-80
2023/04/04 04:06:18;;;;;;;8.82;4.13;;;1.00;99.90;;;;;;5010605;28;20054;-79
2023/04/04 04:09:04;;;;;;;8.43;4.47;;;1.00;99.90;;;;;;5011287;28;20057;-79
2023/04/04 04:11:50;;;;;;;9.63;4.97;;;1.00;99.90;;;;;;4997429;28;20450;-80
2023/04/04 04:14:36;;;;;;;10.02;3.95;;;1.00;99.90;;;;;;5011127;28;20054;-81
2023/04/04 04:17:22;;;;;;;8.75;3.80;;;1.00;99.90;;;;;;4980567;28;20097;-79
2023/04/04 04:20:09;;;;;;;8.70;4.15;;;1.00;99.90;;;;;;4992725;28;20125;-78
2023/04/04 04:22:55;;;;;;;8.90;4.13;;;1.00;99.90;;;;;;5010265;28;20045;-80
2023/04/04 04:25:41;;;;;;;8.05;3.35;;;1.00;99.90;;;;;;5010832;28;20096;-78
2023/04/04 04:28:27;;;;;;;10.18;4.15;;;1.00;99.90;;;;;;5015137;28;20042;-77
2023/04/04 04:31:16;;;;;;;12.02;4.05;;;1.00;99.90;;;;;;5011064;28;20468;-80
2023/04/04 04:34:07;;;;;;;9.18;4.47;;;1.10;99.90;;;;;;4992515;28;20122;-78
2023/04/04 04:36:53;;;;;;;7.47;3.88;;;1.00;99.90;;;;;;4992628;28;20050;-80
2023/04/04 04:39:40;;;;;;;16.27;4.35;;;1.00;99.90;;;;;;4989309;28;20403;-81
2023/04/04 04:42:26;;;;;;;10.63;4.47;;;1.00;99.90;;;;;;4990358;28;20057;-79
2023/04/04 04:45:12;;;;;;;9.52;4.28;;;1.10;99.90;;;;;;4993623;28;20062;-79
2023/04/04 04:47:58;;;;;;;9.75;4.03;;;1.00;99.90;;;;;;5003311;28;20197;-80
2023/04/04 04:50:48;;;;;;;9.38;3.85;;;1.00;99.90;;;;;;4990267;28;20456;-79
2023/04/04 04:53:34;;;;;;;9.93;4.72;;;1.00;99.90;;;;;;4965240;28;20089;-78
2023/04/04 04:56:21;;;;;;;8.82;3.97;;;1.00;99.90;;;;;;4991072;28;20160;-78
2023/04/04 04:59:07;;;;;;;9.90;4.35;;;0.90;99.90;;;;;;4994750;28;20057;-77
2023/04/04 05:01:56;;;;;;;9.02;4.05;;;0.90;99.90;;;;;;4961517;28;20517;-80
2023/04/04 05:04:43;;;;;;;7.47;3.25;;;0.90;99.90;;;;;;4973410;28;20050;-80
2023/04/04 05:07:29;;;;;;;11.73;4.38;;;0.90;99.90;;;;;;4974242;28;20537;-80
2023/04/04 05:10:15;;;;;;;9.00;3.55;;;0.90;99.90;;;;;;4987871;28;20050;-80
2023/04/04 05:13:02;;;;;;;7.28;3.25;;;0.90;99.90;;;;;;4990301;28;20413;-77
2023/04/04 05:15:48;;;;;;;6.80;3.60;;;0.90;99.90;;;;;;4994536;28;20749;-78
2023/04/04 05:18:35;;;;;;;6.95;3.08;;;0.90;99.90;;;;;;4990697;28;20093;-78
2023/04/04 05:21:22;;;;;;;9.13;4.18;;;0.80;99.90;;;;;;4989560;28;20093;-78
2023/04/04 05:24:08;;;;;;;8.38;3.80;;;0.80;99.90;;;;;;4990448;28;20054;-78
2023/04/04 05:26:54;;;;;;;9.52;3.60;;;0.80;99.90;;;;;;4989377;28;20046;-80
2023/04/04 05:29:41;;;;;;;9.80;4.10;;;0.80;99.90;;;;;;4990429;28;20054;-78
2023/04/04 05:32:27;;;;;;;6.68;3.75;;;0.80;99.90;;;;;;4990538;28;20137;-77
2023/04/04 05:35:13;;;;;;;9.30;4.40;;;0.80;99.90;;;;;;4980296;28;20050;-77
2023/04/04 05:37:59;;;;;;;8.65;3.95;;;0.80;99.90;;;;;;4990105;28;20097;-78
2023/04/04 05:40:45;;;;;;;8.40;3.60;;;0.90;99.90;;;;;;4982393;28;20065;-77
2023/04/04 05:43:31;;;;;;;8.40;3.97;;;0.90;99.90;;;;;;4972577;28;20121;-78
2023/04/04 05:46:17;;;;;;;13.70;3.60;;;1.00;99.90;;;;;;4973516;28;20060;-78
2023/04/04 05:49:03;;;;;;;7.45;4.05;;;1.00;99.90;;;;;;4972641;28;20050;-78
2023/04/04 05:51:49;;;;;;;9.38;3.95;;;1.10;99.90;;;;;;4995039;28;20057;-77
2023/04/04 05:54:35;;;;;;;7.53;3.58;;;1.10;99.90;;;;;;4990770;28;20050;-79
2023/04/04 05:57:22;;;;;;;9.43;4.20;;;1.30;99.90;;;;;;4989915;28;20050;-80
2023/04/04 06:00:09;;;;;;;8.93;4.15;;;1.40;99.90;;;;;;4990313;28;20605;-80
2023/04/04 06:02:57;;;;;;;5.72;3.05;;;1.50;99.90;;;;;;4975508;28;20042;-80
2023/04/04 06:05:43;;;;;;;6.63;2.78;;;1.50;99.90;;;;;;4976035;28;20154;-78
2023/04/04 06:08:30;;;;;;;8.07;3.72;;;1.60;99.90;;;;;;4994062;28;20078;-78
2023/04/04 06:11:16;;;;;;;7.78;3.45;;;1.60;99.90;;;;;;4979229;28;20080;-79
2023/04/04 06:14:02;;;;;;;8.93;3.55;;;1.70;99.90;;;;;;4975800;28;20133;-78
2023/04/04 06:16:48;;;;;;;7.72;4.03;;;1.80;99.90;;;;;;4992519;28;20050;-79
2023/04/04 06:19:34;;;;;;;8.07;3.60;;;1.80;99.90;;;;;;4962547;28;20100;-79
2023/04/04 06:22:21;;;;;;;7.28;2.95;;;1.80;99.90;;;;;;4993011;28;20495;-78
2023/04/04 06:25:09;;;;;;;9.20;4.05;;;1.90;99.90;;;;;;4990043;28;20150;-78
2023/04/04 06:27:55;;;;;;;8.57;3.25;;;1.90;99.90;;;;;;4978441;28;20050;-79
2023/04/04 06:30:42;;;;;;;10.50;3.53;;;2.00;99.90;;;;;;4997025;28;20058;-79
2023/04/04 06:33:28;;;;;;;6.88;2.72;;;2.10;99.90;;;;;;4994651;28;20470;-80
2023/04/04 06:36:14;;;;;;;11.68;3.10;;;2.10;99.90;;;;;;4993207;28;20050;-80
2023/04/04 06:39:00;;;;;;;9.65;2.80;;;2.20;99.90;;;;;;4992017;28;20050;-81
2023/04/04 06:41:47;;;;;;;9.32;3.17;;;2.20;99.90;;;;;;4951309;28;20466;-78
2023/04/04 06:44:33;;;;;;;9.57;3.30;;;2.30;99.90;;;;;;4973768;28;20487;-78
2023/04/04 06:47:20;;;;;;;8.57;2.75;;;2.40;99.90;;;;;;4972642;28;20051;-80
2023/04/04 06:50:06;;;;;;;6.85;3.17;;;2.50;99.90;;;;;;4976864;28;20047;-79
2023/04/04 06:52:54;;;;;;;6.53;2.30;;;2.60;99.90;;;;;;4966793;28;20046;-77
2023/04/04 06:55:40;;;;;;;6.63;2.67;;;2.70;99.90;;;;;;4973079;28;20054;-78
2023/04/04 06:58:26;;;;;;;8.73;2.60;;;2.80;99.90;;;;;;4973186;28;20146;-77
2023/04/04 07:01:12;;;;;;;6.45;2.60;;;3.00;99.90;;;;;;4944054;28;20518;-78
2023/04/04 07:03:58;;;;;;;9.05;2.67;;;3.20;99.90;;;;;;4943216;28;20054;-78
2023/04/04 07:06:44;;;;;;;9.88;3.00;;;3.30;99.90;;;;;;4978323;28;20054;-78
2023/04/04 07:09:30;;;;;;;6.25;2.75;;;3.40;99.90;;;;;;4955746;28;20057;-78
2023/04/04 07:12:16;;;;;;;8.30;2.58;;;3.50;99.90;;;;;;4954770;28;20478;-78
2023/04/04 07:15:03;;;;;;;8.90;2.63;;;3.70;99.90;;;;;;4955571;28;20051;-78
2023/04/04 07:17:49;;;;;;;7.57;2.78;;;3.80;99.90;;;;;;4957864;28;20399;-79
2023/04/04 07:20:35;;;;;;;7.05;2.20;;;3.90;99.90;;;;;;4972992;28;20098;-77
2023/04/04 07:23:21;;;;;;;6.75;2.10;;;4.10;99.90;;;;;;4973596;28;20059;-78
2023/04/04 07:26:07;;;;;;;7.70;2.88;;;4.30;99.90;;;;;;4973174;28;20105;-78
2023/04/04 07:28:53;;;;;;;9.27;2.40;;;4.50;99.90;;;;;;4973315;28;20051;-78
2023/04/04 07:31:39;;;;;;;7.13;2.30;;;4.80;99.90;;;;;;4955603;28;20510;-78
2023/04/04 07:34:26;;;;;;;12.10;3.17;;;4.90;99.90;;;;;;4973781;28;20054;-79
2023/04/04 07:37:12;;;;;;;9.18;2.35;;;5.20;99.90;;;;;;4945052;28;20117;-78
2023/04/04 07:39:58;;;;;;;8.45;2.10;;;5.40;99.90;;;;;;4964786;28;20146;-78
2023/04/04 07:42:45;;;;;;;5.78;2.53;;;5.60;99.90;;;;;;4991696;28;20047;-78
2023/04/04 07:45:31;;;;;;;5.82;2.50;;;5.90;99.90;;;;;;4975035;28;20077;-79
2023/04/04 07:48:17;;;;;;;6.00;1.55;;;6.20;99.90;;;;;;4991747;28;20410;-80
2023/04/04 07:51:04;;;;;;;7.78;1.80;;;6.40;99.90;;;;;;4978450;28;20479;-79
2023/04/04 07:53:50;;;;;;;5.20;1.60;;;6.60;99.90;;;;;;4998646;28;20073;-79
2023/04/04 07:56:36;;;;;;;6.65;2.28;;;6.70;99.90;;;;;;4992706;28;20042;-79
2023/04/04 07:59:22;;;;;;;5.47;1.83;;;6.80;99.90;;;;;;4991167;28;20141;-80
2023/04/04 08:02:08;;;;;;;6.18;1.80;;;7.10;99.90;;;;;;4991086;28;20053;-78
2023/04/04 08:04:55;;;;;;;5.93;1.92;;;7.20;99.90;;;;;;4991227;28;20054;-78
2023/04/04 08:07:41;;;;;;;5.32;1.77;;;7.20;99.00;;;;;;4990043;28;20054;-78
2023/04/04 08:10:27;;;;;;;7.07;1.77;;;7.30;99.00;;;;;;4992052;28;20053;-78
2023/04/04 08:13:13;;;;;;;5.93;1.90;;;7.50;98.70;;;;;;4993653;28;20145;-78
2023/04/04 08:16:00;;;;;;;6.00;1.35;;;7.60;98.70;;;;;;4973753;28;20058;-79
2023/04/04 08:18:46;;;;;;;8.85;3.03;;;7.50;98.40;;;;;;4977850;28;20050;-78
2023/04/04 08:21:32;;;;;;;4.95;1.33;;;7.40;98.00;;;;;;4991652;28;20050;-78
2023/04/04 08:24:21;;;;;;;6.55;1.98;;;7.40;97.10;;;;;;4991346;28;20499;-79
2023/04/04 08:27:07;;;;;;;4.65;1.83;;;7.30;96.70;;;;;;4976693;28;20101;-80
2023/04/04 08:29:53;;;;;;;5.20;1.50;;;7.30;96.00;;;;;;4990646;28;20375;-77
2023/04/04 08:32:40;;;;;;;7.75;1.80;;;7.30;95.80;;;;;;4978120;28;20516;-79
2023/04/04 08:35:27;;;;;;;5.40;1.88;;;7.40;95.90;;;;;;4990814;28;20050;-81
2023/04/04 08:38:13;;;;;;;8.00;1.40;;;7.70;95.80;;;;;;4990753;28;20054;-79
2023/04/04 08:40:59;;;;;;;4.22;1.65;;;7.80;95.10;;;;;;4990738;28;20062;-78
2023/04/04 08:43:53;;;;;;;5.80;2.15;;;8.10;95.10;;;;;;4976818;28;20441;-78
2023/04/04 08:46:41;;;;;;;5.10;1.40;;;8.30;94.60;;;;;;4960670;28;20134;-80
2023/04/04 08:49:30;;;;;;;5.65;1.50;;;8.30;94.20;;;;;;4994847;28;20054;-78
2023/04/04 08:52:19;;;;;;;5.68;1.58;;;8.40;93.50;;;;;;4991640;28;20068;-80
2023/04/04 08:55:06;;;;;;;6.03;1.92;;;8.40;93.70;;;;;;4991205;28;20577;-80
2023/04/04 08:57:53;;;;;;;5.95;1.50;;;8.60;93.60;;;;;;4991281;28;20047;-78
2023/04/04 09:00:41;;;;;;;3.65;1.38;;;8.90;93.30;;;;;;4960354;28;20058;-81
2023/04/04 09:03:31;;;;;;;4.53;1.42;;;9.00;92.50;;;;;;4990120;28;20067;-79
2023/04/04 09:06:18;;;;;;;6.10;1.40;;;9.30;92.50;;;;;;4987698;28;20421;-80
2023/04/04 09:09:06;;;;;;;4.55;1.60;;;9.30;91.30;;;;;;4976069;28;20054;-79
2023/04/04 09:11:52;;;;;;;4.20;1.23;;;9.50;91.20;;;;;;4991940;28;20064;-80
2023/04/04 09:14:40;;;;;;;5.95;1.63;;;9.70;91.10;;;;;;4974406;28;20110;-83
2023/04/04 09:17:26;;;;;;;3.55;1.13;;;9.70;90.00;;;;;;4991453;28;20073;-84
2023/04/04 09:20:41;;;;;;;4.25;1.58;;;9.50;88.80;;;;;;4990654;28;20054;-78
2023/04/04 09:23:27;;;;;;;6.07;1.70;;;9.50;86.70;;;;;;4990780;28;20137;-82
2023/04/04 09:26:15;;;;;;;5.85;1.52;;;9.50;90.00;;;;;;4973156;28;20050;-79
2023/04/04 09:29:01;;;;;;;6.65;1.48;;;9.40;88.90;;;;;;4991282;28;20054;-84
2023/04/04 09:31:49;;;;;;;5.57;1.95;;;9.50;88.10;;;;;;4977159;28;20514;-78
2023/04/04 09:34:36;;;;;;;4.95;1.63;;;9.50;87.30;;;;;;4991951;28;20046;-82
2023/04/04 09:37:22;;;;;;;4.25;1.40;;;9.60;87.80;;;;;;4994951;28;20106;-82
2023/04/04 09:40:09;;;;;;;4.97;1.30;;;9.80;87.20;;;;;;4964409;28;20502;-84
2023/04/04 09:42:59;;;;;;;4.85;1.20;;;10.00;86.50;;;;;;4994015;28;20072;-83
2023/04/04 09:45:46;;;;;;;5.85;1.63;;;10.10;85.30;;;;;;4998509;28;20070;-78
2023/04/04 09:48:34;;;;;;;6.50;1.55;;;10.30;86.00;;;;;;4995178;28;20549;-82
2023/04/04 09:51:20;;;;;;;4.00;1.70;;;10.60;85.60;;;;;;4999611;28;20121;-77
2023/04/04 09:54:09;;;;;;;4.97;1.60;;;10.80;85.50;;;;;;4987926;28;20096;-79
2023/04/04 09:56:55;;;;;;;4.93;1.75;;;11.20;84.60;;;;;;4995486;28;20055;-85
2023/04/04 09:59:45;;;;;;;5.22;1.60;;;11.20;82.30;;;;;;4993981;28;20061;-81
2023/04/04 10:02:32;;;;;;;5.45;2.42;;;11.10;81.40;;;;;;4976393;28;20062;-84
2023/04/04 10:05:19;;;;;;;5.03;1.50;;;11.40;82.60;;;;;;4994053;28;20529;-84
2023/04/04 10:08:17;;;;;;;5.72;1.77;;;11.80;81.90;;;;;;4992659;28;20470;-83
2023/04/04 10:11:04;;;;;;;4.38;1.50;;;12.10;80.50;;;;;;4994314;28;20042;-77
2023/04/04 10:13:51;;;;;;;5.32;1.40;;;12.50;80.20;;;;;;4996529;28;20046;-81
2023/04/04 10:16:45;;;;;;;5.78;1.55;;;12.90;80.40;;;;;;5000175;28;20499;-80
2023/04/04 10:19:31;;;;;;;4.85;1.33;;;13.20;77.10;;;;;;4995102;28;20050;-79
2023/04/04 10:22:19;;;;;;;5.35;1.60;;;13.20;76.30;;;;;;4962752;28;20105;-81
2023/04/04 10:25:06;;;;;;;6.07;1.88;;;13.40;73.10;;;;;;4976465;28;20052;-80
2023/04/04 10:27:52;;;;;;;8.43;1.80;;;13.60;72.50;;;;;;5001263;28;20124;-80
2023/04/04 10:30:43;;;;;;;4.95;1.83;;;13.80;71.90;;;;;;4993932;28;20061;-79
2023/04/04 10:33:37;;;;;;;4.93;1.50;;;13.80;70.20;;;;;;4994285;28;20452;-79
2023/04/04 10:36:28;;;;;;;4.72;1.40;;;14.10;70.00;;;;;;5002058;28;20051;-83
2023/04/04 10:39:14;;;;;;;4.85;1.80;;;14.30;68.50;;;;;;4994305;28;20054;-83
2023/04/04 10:42:05;;;;;;;6.50;1.40;;;14.50;68.30;;;;;;4992629;28;20454;-84
2023/04/04 10:44:51;;;;;;;6.30;1.70;;;14.40;67.20;;;;;;4977137;28;20129;-86
2023/04/04 10:47:38;;;;;;;7.72;1.75;;;14.50;66.20;;;;;;4992458;28;20554;-84
2023/04/04 10:50:25;;;;;;;5.38;1.80;;;14.70;65.10;;;;;;4988981;28;20486;-83
2023/04/04 10:53:11;;;;;;;5.57;1.60;;;14.60;63.90;;;;;;4975157;28;20058;-83
2023/04/04 10:56:00;;;;;;;5.68;2.03;;;15.10;64.80;;;;;;4996820;28;20057;-81
2023/04/04 10:58:48;;;;;;;5.10;2.10;;;15.20;63.20;;;;;;4994117;28;20042;-85
2023/04/04 11:01:55;;;;;;;7.03;1.80;;;15.10;62.10;;;;;;4975725;28;20054;-83
2023/04/04 11:04:46;;;;;;;3.72;1.40;;;15.00;61.80;;;;;;4974706;28;20106;-84
2023/04/04 11:07:35;;;;;;;5.57;1.88;;;14.80;61.10;;;;;;4991920;28;20058;-84
2023/04/04 11:10:24;;;;;;;6.10;2.17;;;14.80;62.90;;;;;;4992011;28;20050;-78
2023/04/04 11:13:26;;;;;;;5.93;1.60;;;15.00;62.30;;;;;;4999260;28;20061;-81
2023/04/04 11:16:15;;;;;;;5.05;1.58;;;15.10;61.50;;;;;;4993246;28;20090;-78
2023/04/04 11:19:04;;;;;;;6.30;1.75;;;15.30;60.30;;;;;;4992452;28;20104;-81
2023/04/04 11:21:51;;;;;;;6.88;1.83;;;15.50;60.80;;;;;;4993288;28;20406;-86
2023/04/04 11:24:43;;;;;;;5.88;2.03;;;15.60;60.70;;;;;;4975744;28;20064;-78
2023/04/04 11:27:29;;;;;;;7.97;1.83;;;16.00;60.00;;;;;;4993009;28;20054;-79
2023/04/04 11:30:15;;;;;;;7.00;2.20;;;15.80;58.90;;;;;;4993099;28;20410;-86
2023/04/04 11:33:02;;;;;;;7.18;1.80;;;15.70;58.80;;;;;;4994066;28;20058;-83
2023/04/04 11:35:49;;;;;;;7.22;1.70;;;15.80;58.40;;;;;;4994783;28;20054;-78
2023/04/04 11:38:39;;;;;;;10.65;2.05;;;15.80;57.90;;;;;;4999180;28;20050;-78
2023/04/04 11:41:48;;;;;;;8.02;1.50;;;16.00;58.00;;;;;;4994138;28;20050;-86
2023/04/04 11:44:48;;;;;;;4.13;1.60;;;15.70;56.40;;;;;;4991548;28;20490;-85
2023/04/04 11:47:34;;;;;;;8.80;2.20;;;15.80;56.20;;;;;;4991042;28;20054;-83
2023/04/04 11:50:20;;;;;;;4.82;1.30;;;16.10;57.10;;;;;;4991832;28;20050;-86
2023/04/04 11:53:08;;;;;;;5.55;1.75;;;16.70;55.80;;;;;;4974562;28;20046;-79
2023/04/04 11:55:55;;;;;;;6.88;1.90;;;16.40;55.70;;;;;;4965251;28;20050;-81
2023/04/04 11:58:47;;;;;;;5.45;1.77;;;16.90;55.40;;;;;;4991748;28;20058;-81
2023/04/04 12:01:33;;;;;;;5.43;1.77;;;17.40;54.40;;;;;;4992135;28;20525;-87
2023/04/04 12:04:21;;;;;;;6.43;1.60;;;17.40;53.10;;;;;;4991970;28;20097;-84
2023/04/04 12:07:08;;;;;;;4.07;1.60;;;17.40;52.80;;;;;;4991944;28;20057;-78
2023/04/04 12:09:56;;;;;;;9.15;1.85;;;17.90;52.60;;;;;;4991401;28;20054;-80
2023/04/04 12:12:44;;;;;;;5.10;2.00;;;17.40;50.90;;;;;;4992235;28;20050;-84
2023/04/04 12:15:32;;;;;;;4.10;1.70;;;17.70;51.10;;;;;;4972856;28;20050;-80
2023/04/04 12:18:22;;;;;;;6.35;1.60;;;17.60;50.70;;;;;;4980728;28;20061;-85
2023/04/04 12:21:08;;;;;;;5.32;1.70;;;17.50;50.80;;;;;;4995162;28;20050;-80
2023/04/04 12:23:56;;;;;;;5.43;2.15;;;17.80;51.40;;;;;;4974427;28;20046;-85
2023/04/04 12:26:45;;;;;;;5.93;1.83;;;18.10;49.70;;;;;;4973879;28;20043;-83
2023/04/04 12:29:36;;;;;;;5.45;1.45;;;18.40;49.30;;;;;;4974355;28;20492;-84
2023/04/04 12:32:22;;;;;;;6.50;2.00;;;18.80;49.00;;;;;;4972329;28;20046;-86
2023/04/04 12:35:10;;;;;;;6.47;1.80;;;18.90;47.90;;;;;;4991173;28;20050;-86
2023/04/04 12:38:02;;;;;;;7.70;2.45;;;18.80;47.80;;;;;;4980257;28;20121;-84
2023/04/04 12:40:50;;;;;;;6.47;2.28;;;18.60;46.60;;;;;;4990393;28;20053;-79
2023/04/04 12:43:41;;;;;;;6.97;2.42;;;18.30;47.40;;;;;;4974578;28;20469;-85
2023/04/04 12:46:27;;;;;;;6.18;1.73;;;18.80;47.40;;;;;;4992183;28;20401;-83
2023/04/04 12:49:14;;;;;;;5.70;1.83;;;18.50;46.60;;;;;;4992684;28;20065;-80
2023/04/04 12:52:06;;;;;;;5.22;2.13;;;18.60;46.60;;;;;;4974206;28;20057;-81
2023/04/04 12:54:52;;;;;;;8.65;2.15;;;18.50;46.80;;;;;;4977130;28;20061;-83
2023/04/04 12:57:39;;;;;;;8.63;2.28;;;18.60;47.00;;;;;;4992549;28;20085;-83
2023/04/04 13:00:25;;;;;;;8.38;2.33;;;19.00;46.90;;;;;;4990794;28;20047;-79
2023/04/04 13:03:13;;;;;;;5.40;1.75;;;18.60;46.40;;;;;;4997073;28;20061;-81
2023/04/04 13:05:59;;;;;;;5.35;2.22;;;19.00;46.90;;;;;;4989712;28;20133;-81
2023/04/04 13:08:52;;;;;;;4.28;1.80;;;19.20;46.30;;;;;;4990966;28;20050;-80
2023/04/04 13:11:58;;;;;;;8.18;2.33;;;21.10;45.40;;;;;;4994554;28;20090;-79
2023/04/04 13:14:57;;;;;;;5.95;2.03;;;22.20;43.30;;;;;;4979643;28;20097;-78
2023/04/04 13:17:45;;;;;;;7.28;2.53;;;23.10;41.70;;;;;;4981081;28;20599;-84
2023/04/04 13:20:32;;;;;;;4.90;2.20;;;23.50;40.40;;;;;;4983505;28;20054;-79
2023/04/04 13:23:18;;;;;;;5.05;2.97;;;24.00;40.20;;;;;;4994286;28;20046;-80
2023/04/04 13:26:06;;;;;;;6.05;2.40;;;23.60;38.80;;;;;;4994152;28;20050;-81
2023/04/04 13:28:52;;;;;;;5.10;2.33;;;23.40;38.80;;;;;;4993496;28;20057;-79
2023/04/04 13:31:39;;;;;;;5.90;1.98;;;24.40;38.80;;;;;;4993877;28;20512;-81
2023/04/04 13:34:26;;;;;;;8.52;3.22;;;24.80;37.20;;;;;;4993751;28;20104;-80
2023/04/04 13:37:12;;;;;;;6.95;2.15;;;23.80;37.20;;;;;;4996479;28;20156;-80
2023/04/04 13:39:58;;;;;;;6.63;2.63;;;24.50;38.40;;;;;;4980214;28;20084;-83
2023/04/04 13:42:44;;;;;;;5.10;2.15;;;24.70;37.30;;;;;;4995442;28;20154;-80
2023/04/04 13:45:34;;;;;;;8.90;2.63;;;24.80;37.30;;;;;;4977841;28;20081;-79
2023/04/04 13:48:20;;;;;;;7.00;2.75;;;25.30;36.50;;;;;;4975947;28;20395;-79
2023/04/04 13:51:06;;;;;;;6.75;2.70;;;25.10;36.20;;;;;;4994352;28;20116;-79
2023/04/04 13:53:52;;;;;;;6.80;2.38;;;24.90;36.50;;;;;;4976082;28;20065;-79
2023/04/04 13:56:39;;;;;;;3.92;1.95;;;24.60;36.70;;;;;;4994449;28;20054;-79
2023/04/04 13:59:25;;;;;;;6.93;2.80;;;25.30;36.60;;;;;;4979474;28;20050;-79
2023/04/04 14:02:11;;;;;;;5.72;2.17;;;26.10;35.70;;;;;;5002184;28;20072;-81
2023/04/04 14:04:57;;;;;;;9.35;2.10;;;25.50;35.20;;;;;;4995475;28;20046;-78
2023/04/04 14:07:43;;;;;;;6.30;2.10;;;25.40;35.30;;;;;;4994235;28;20066;-81
2023/04/04 14:10:30;;;;;;;13.57;2.40;;;25.50;35.90;;;;;;4976230;28;20490;-80
2023/04/04 14:13:17;;;;;;;5.95;2.58;;;26.00;34.60;;;;;;4993164;28;20061;-80
2023/04/04 14:16:03;;;;;;;8.27;2.83;;;25.90;34.30;;;;;;4993659;28;20046;-79
2023/04/04 14:18:49;;;;;;;10.55;2.63;;;25.10;35.00;;;;;;4993703;28;20054;-79
2023/04/04 14:21:35;;;;;;;7.00;2.38;;;25.00;35.00;;;;;;4992503;28;20391;-82
2023/04/04 14:24:22;;;;;;;7.63;2.33;;;24.70;34.90;;;;;;4979139;28;20074;-81
2023/04/04 14:27:08;;;;;;;6.38;2.30;;;24.80;34.60;;;;;;4994248;28;20090;-80
2023/04/04 14:29:54;;;;;;;6.05;2.10;;;24.10;35.00;;;;;;4994182;28;20437;-80
2023/04/04 14:32:40;;;;;;;8.55;2.45;;;24.20;35.80;;;;;;4975371;28;20058;-88
2023/04/04 14:35:26;;;;;;;7.70;2.70;;;24.10;35.70;;;;;;4994072;28;20058;-85
2023/04/04 14:38:12;;;;;;;8.35;2.03;;;23.60;35.20;;;;;;4997391;28;20100;-80
2023/04/04 14:41:00;;;;;;;5.65;2.15;;;23.20;36.50;;;;;;5002675;28;20514;-82
2023/04/04 14:43:46;;;;;;;8.15;2.47;;;23.50;36.50;;;;;;4975411;28;20139;-81